CCGS Louis S. St-Laurent — CGBN — position and weather

sailwx.info

Track history (hours):
 
Tides and Currents Weather Stations Pressure Air Temp Water Temp Dewpoint Dewpoint Depression Visibility Wind Speed Wind Dir Waves Ship Positions

Oceanographic research ship CCGS Louis S. St-Laurent (Canada)

Detailed information on ship capabilities available from ARCUS's ALIAS (Arctic Logistics Information and Support) project.

Last reported at 2017-Feb-24 07:00 UTC. Time now 2017-Feb-24 08:22 UTC.
Position N 46°48' W 071°12'.

Length 119.63 m; beam 24.38 m; draft 9.9 m.

MMSI: 316165000.

Wind from 210 at 7 knots

Barometer 1009.9 mb
Air temperature 4.8 ° C
Dewpoint 2.2 ° C

Date/timePositionNaut miles runAvg speedWind from/ knotsBaromVisibWave heightAir tempDewpointWater temp
2017-Feb-24 07:00N 46°48' W 071°12'0 0.0 210 / 71009.9 4.8 2.2
2017-Feb-24 06:00N 46°48' W 071°12'0 0.0 240 / 101008.7 5.8 2.8
2017-Feb-24 05:00N 46°48' W 071°12'0 0.0 220 / 71007.4 6.2 4.0
2017-Feb-24 04:00N 46°48' W 071°12'0 0.0 240 / 91006.3 6.7 5.0
2017-Feb-24 03:00N 46°48' W 071°12'0 0.0 240 / 101005.0 7.1 6.1
2017-Feb-24 02:00N 46°48' W 071°12'0 0.0 220 / 91003.6 6.8 6.4
2017-Feb-24 01:00N 46°48' W 071°12'0 0.0 240 / 91002.1 6.9 6.7
2017-Feb-24 00:00N 46°48' W 071°12'0 0.0 260 / 41001.3 5.8 5.7
2017-Feb-23 23:00N 46°48' W 071°12'0 0.0 290 / 31000.8 5.8 5.6
2017-Feb-23 22:00N 46°48' W 071°12'0 0.0 230 / 2999.9 6.4 6.0
2017-Feb-23 21:00N 46°48' W 071°12'0 0.0 220 / 3999.9 7.0 6.4
2017-Feb-23 20:00N 46°48' W 071°12'0 0.0 230 / 5999.6 6.9 5.9
2017-Feb-23 19:00N 46°48' W 071°12'0 0.0 220 / 4999.2 5.7 4.0
2017-Feb-23 18:00N 46°48' W 071°12'0 0.0 300 / 21000.2 4.7 2.9
2017-Feb-23 17:00N 46°48' W 071°12'0 0.0 150 / 11002.2 4.2 2.4
2017-Feb-23 16:00N 46°48' W 071°12'0 0.0 310 / 11003.6 4.0 2.6
2017-Feb-23 15:00N 46°48' W 071°12'0 0.0 110 / 21004.8 3.7 2.3
2017-Feb-23 14:00N 46°48' W 071°12'0 0.0 300 / 21005.4 3.5 2.0
2017-Feb-23 13:00N 46°48' W 071°12'0 0.0 240 / 31006.2 2.5 0.9
2017-Feb-23 12:00N 46°48' W 071°12'0 0.0 1006.5 3.0 1.1
2017-Feb-23 11:00N 46°48' W 071°12'0 0.0 230 / 31007.1 2.6 0.6
2017-Feb-23 10:00N 46°48' W 071°12'0 0.0 1007.5 1.1 0.3
2017-Feb-23 09:00N 46°48' W 071°12'0 0.0 350 / 11008.2 1.4 0.2
2017-Feb-23 08:00N 46°48' W 071°12'0 0.0 1008.7 1.0-0.2
2017-Feb-23 07:00N 46°48' W 071°12'0 0.0 1009.6 1.5 0.1
2017-Feb-23 06:00N 46°48' W 071°12'0 0.0 220 / 31010.5 1.2-0.1
2017-Feb-23 05:00N 46°48' W 071°12'0 0.0 300 / 11010.5 1.3-0.0
2017-Feb-23 04:00N 46°48' W 071°12'0 0.0 250 / 11011.0 1.3-0.2
2017-Feb-23 03:00N 46°48' W 071°12'0 0.0 1011.0 2.6 0.2
2017-Feb-23 02:00N 46°48' W 071°12'0 0.0 220 / 31011.5 3.4 0.6
2017-Feb-23 01:00N 46°48' W 071°12'0 0.0 240 / 41011.9 3.0 0.5
2017-Feb-23 00:00N 46°48' W 071°12'0 0.0 260 / 41011.3 3.5 0.6
2017-Feb-22 23:00N 46°48' W 071°12'0 0.0 180 / 71011.3 4.0 0.4
2017-Feb-22 22:00N 46°48' W 071°12'0 0.0 220 / 41012.8 4.4 0.6
2017-Feb-22 21:00N 46°48' W 071°12'0 0.0 220 / 61012.9 4.6 0.6
2017-Feb-22 20:00N 46°48' W 071°12'0 0.0 200 / 41012.8 4.8 0.2
2017-Feb-22 19:00N 46°48' W 071°12'0 0.0 190 / 61013.3 4.7-0.5
2017-Feb-22 18:00N 46°48' W 071°12'0 0.0 210 / 61013.6 4.1-1.1
2017-Feb-22 17:00N 46°48' W 071°12'0 0.0 200 / 61014.4 3.6-1.4
2017-Feb-22 16:00N 46°48' W 071°12'0 0.0 200 / 61014.6 2.8-1.8
2017-Feb-22 15:00N 46°48' W 071°12'0 0.0 200 / 71014.6 1.9-1.9
2017-Feb-22 14:00N 46°48' W 071°12'0 0.0 190 / 51014.8 1.6-1.5
2017-Feb-22 13:00N 46°48' W 071°12'0 0.0 210 / 31014.9 1.1-1.6
2017-Feb-22 12:00N 46°48' W 071°12'0 0.0 190 / 41014.6 0.9-1.8
2017-Feb-22 11:00N 46°48' W 071°12'0 0.0 240 / 31014.4 1.0-1.7
2017-Feb-22 10:00N 46°48' W 071°12'0 0.0 220 / 31014.4 0.4-1.8
2017-Feb-22 09:00N 46°48' W 071°12'0 0.0 220 / 41014.3 0.6-1.6
2017-Feb-22 07:00N 46°48' W 071°12'0 0.0 230 / 41014.5 1.0-3.4
2017-Feb-22 06:00N 46°48' W 071°12'0 0.0 230 / 31014.5 1.2-6.7
2017-Feb-22 05:00N 46°48' W 071°12'0 0.0 220 / 31014.6 1.1-7.4
2017-Feb-22 04:00N 46°48' W 071°12'0 0.0 220 / 31015.0 0.8-7.4
2017-Feb-22 03:00N 46°48' W 071°12'0 0.0 230 / 41015.5 0.2-6.5
2017-Feb-22 02:00N 46°48' W 071°12'0 0.0 1015.7 -0.0-4.7
2017-Feb-22 01:00N 46°48' W 071°12'0 0.0 1016.3 -0.0-6.0
2017-Feb-22 00:00N 46°48' W 071°12'0 0.0 050 / 11016.7 -0.3-4.3
2017-Feb-21 23:00N 46°48' W 071°12'0 0.0 080 / 11017.2 -0.3-4.6
2017-Feb-21 22:00N 46°48' W 071°12'0 0.0 030 / 21018.2 -0.3-5.0
2017-Feb-21 21:00N 46°48' W 071°12'0 0.0 010 / 11019.9 0.6-6.3
2017-Feb-21 20:00N 46°48' W 071°12'0 0.0 350 / 11020.7 1.1-7.5
2017-Feb-21 19:00N 46°48' W 071°12'0 0.0 020 / 21022.4 -1.4-7.2
2017-Feb-21 18:00N 46°48' W 071°12'0 0.0 110 / 11023.9 -0.8-9.0
2017-Feb-21 17:00N 46°48' W 071°12'0 0.0 030 / 11025.5 -1.9-7.9
2017-Feb-21 16:00N 46°48' W 071°12'0 0.0 020 / 21026.6 -3.9-9.2
2017-Feb-21 15:00N 46°48' W 071°12'0 0.0 300 / 21028.0 -5.2-9.6
2017-Feb-21 14:00N 46°48' W 071°12'0 0.0 1028.4 -4.7-10.9
2017-Feb-21 13:00N 46°48' W 071°12'0 0.0 240 / 11029.3 -6.8-9.6
2017-Feb-21 12:00N 46°48' W 071°12'0 0.0 250 / 11029.4 -8.1-10.7
2017-Feb-21 11:00N 46°48' W 071°12'0 0.0 310 / 31029.5 -7.7-12.8
2017-Feb-21 10:00N 46°48' W 071°12'0 0.0 310 / 21030.2 -7.1-12.7
2017-Feb-21 09:00N 46°48' W 071°12'0 0.0 150 / 11029.8 -6.9-10.6
2017-Feb-21 08:00N 46°48' W 071°12'0 0.0 010 / 11029.6 -6.1-10.0
2017-Feb-21 07:00N 46°48' W 071°12'0 0.0 020 / 21030.2 -6.2-9.5
2017-Feb-21 06:00N 46°48' W 071°12'0 0.0 010 / 21030.1 -5.5-7.1
2017-Feb-21 05:00N 46°48' W 071°12'0 0.0 020 / 21030.6 -4.5-7.0
2017-Feb-21 04:00N 46°48' W 071°12'0 0.0 230 / 11030.6 -3.5-6.0
2017-Feb-21 03:00N 46°48' W 071°12'0 0.0 020 / 21029.9 -3.4-5.8
2017-Feb-21 02:00N 46°48' W 071°12'0 0.0 110 / 11029.2 -2.8-5.7
2017-Feb-21 01:00N 46°48' W 071°12'0 0.0 110 / 11028.8 -2.3-6.0
2017-Feb-21 00:00N 46°48' W 071°12'0 0.0 040 / 11028.4 -1.7-5.3
2017-Feb-20 23:00N 46°48' W 071°12'0 0.0 110 / 11027.6 -1.2-5.8
2017-Feb-20 22:00N 46°48' W 071°12'0 0.0 1027.2 0.7-4.7
2017-Feb-20 21:00N 46°48' W 071°12'0 0.0 020 / 11026.8 1.8-4.5
2017-Feb-20 20:00N 46°48' W 071°12'0 0.0 040 / 11026.0 2.7-5.3
2017-Feb-20 19:00N 46°48' W 071°12'0 0.0 170 / 11025.1 2.1-5.6
2017-Feb-20 18:00N 46°48' W 071°12'0 0.0 010 / 11024.7 2.7-5.1
2017-Feb-20 17:00N 46°48' W 071°12'0 0.0 330 / 21024.7 1.0-10.0
2017-Feb-20 16:00N 46°48' W 071°12'0 0.0 270 / 21024.7 0.5-10.1
2017-Feb-20 15:00N 46°48' W 071°12'0 0.0 240 / 41023.9 -0.8-9.8
2017-Feb-20 14:00N 46°48' W 071°12'0 0.0 240 / 51023.3 -1.8-9.4
2017-Feb-20 13:00N 46°48' W 071°12'0 0.0 280 / 61022.4 -2.8-9.8
2017-Feb-20 12:00N 46°48' W 071°12'0 0.0 300 / 51021.2 -2.8-8.9
2017-Feb-20 11:00N 46°48' W 071°12'0 0.0 280 / 41020.0 -2.4-8.6
2017-Feb-20 09:00N 46°48' W 071°12'0 0.0 320 / 41018.0 -0.6-6.7
2017-Feb-20 08:00N 46°48' W 071°12'0 0.0 340 / 81017.5 0.2-6.8
2017-Feb-20 07:00N 46°48' W 071°12'0 0.0 310 / 41016.6 0.7-5.5
2017-Feb-20 06:00N 46°48' W 071°12'0 0.0 350 / 71015.9 1.0-5.0
2017-Feb-20 05:00N 46°48' W 071°12'0 0.0 340 / 61015.3 1.1-5.0
2017-Feb-20 04:00N 46°48' W 071°12'0 0.0 360 / 71014.6 1.3-4.4
2017-Feb-20 03:00N 46°48' W 071°12'0 0.0 360 / 71014.0 1.8-5.0
2017-Feb-20 02:00N 46°48' W 071°12'0 0.0 330 / 61012.9 1.8-4.3
2017-Feb-20 01:00N 46°48' W 071°12'0 0.0 350 / 121011.7 2.6-4.2
2017-Feb-20 00:00N 46°48' W 071°12'0 0.0 280 / 81010.4 2.6-2.6
2017-Feb-19 23:00N 46°48' W 071°12'0 0.0 100 / 11009.3 1.0-1.2
2017-Feb-19 22:00N 46°48' W 071°12'0 0.0 040 / 11008.2 1.2-0.7
2017-Feb-19 21:00N 46°48' W 071°12'0 0.0 1006.9 1.1-0.6
2017-Feb-19 20:00N 46°48' W 071°12'0 0.0 010 / 11005.4 1.5-0.6
2017-Feb-19 19:00N 46°48' W 071°12'0 0.0 030 / 11003.9 1.4-0.5
2017-Feb-19 18:00N 46°48' W 071°12'0 0.0 020 / 11002.7 1.3-0.4
2017-Feb-19 17:00N 46°48' W 071°12'0 0.0 360 / 11001.6 1.8 0.1
2017-Feb-19 16:00N 46°48' W 071°12'0 0.0 230 / 71001.2 4.1 2.1
2017-Feb-19 15:00N 46°48' W 071°12'0 0.0 230 / 71000.9 4.0 1.8
2017-Feb-19 14:00N 46°48' W 071°12'0 0.0 200 / 61000.7 3.8 1.4
2017-Feb-19 13:00N 46°48' W 071°12'0 0.0 230 / 51000.3 4.0 1.2
2017-Feb-19 12:00N 46°48' W 071°12'0 0.0 210 / 6999.4 3.6 1.1
2017-Feb-19 11:00N 46°48' W 071°12'0 0.0 210 / 4998.9 3.3 1.3
2017-Feb-19 10:00N 46°48' W 071°12'0 0.0 210 / 7998.0 3.2 1.0
2017-Feb-19 09:00N 46°48' W 071°12'0 0.0 210 / 5997.4 3.3 0.8
2017-Feb-19 08:00N 46°48' W 071°12'0 0.0 220 / 6996.7 3.3 0.2
2017-Feb-19 07:00N 46°48' W 071°12'0 0.0 240 / 4995.9 2.8-0.7
2017-Feb-19 06:00N 46°48' W 071°12'0 0.0 230 / 6995.1 2.8-0.8
2017-Feb-19 05:00N 46°48' W 071°12'0 0.0 230 / 5994.9 2.2-2.5
2017-Feb-19 04:00N 46°48' W 071°12'0 0.0 230 / 5994.6 1.6-3.6
2017-Feb-19 03:00N 46°48' W 071°12'0 0.0 230 / 5994.4 1.0-4.5
2017-Feb-19 02:00N 46°48' W 071°12'0 0.0 210 / 5994.4 1.6-5.1
2017-Feb-19 01:00N 46°48' W 071°12'0 0.0 220 / 4994.5 1.3-5.3
2017-Feb-19 00:00N 46°48' W 071°12'0 0.0 220 / 2993.9 1.3-4.2
2017-Feb-18 23:00N 46°48' W 071°12'0 0.0 993.7 0.7-3.0
2017-Feb-18 22:00N 46°48' W 071°12'0 0.0 120 / 1994.1 0.7-6.7
2017-Feb-18 21:00N 46°48' W 071°12'0 0.0 995.4 1.2-6.5
2017-Feb-18 20:00N 46°48' W 071°12'0 0.0 030 / 3996.4 0.5-5.8
2017-Feb-18 19:00N 46°48' W 071°12'0 0.0 020 / 3998.6 -0.9-6.1
2017-Feb-18 18:00N 46°48' W 071°12'0 0.0 360 / 21000.4 -1.5-6.7
2017-Feb-18 17:00N 46°48' W 071°12'0 0.0 030 / 31001.6 -2.3-6.9
2017-Feb-18 16:00N 46°48' W 071°12'0 0.0 260 / 11004.1 -3.1-7.5
2017-Feb-18 15:00N 46°48' W 071°12'0 0.0 220 / 41005.4 -4.3-8.0
2017-Feb-18 14:00N 46°48' W 071°12'0 0.0 250 / 21005.6 -4.9-8.0
2017-Feb-18 13:00N 46°48' W 071°12'0 0.0 230 / 41006.2 -5.8-8.4
2017-Feb-18 12:00N 46°48' W 071°12'0 0.0 250 / 41006.8 -5.9-8.5
2017-Feb-18 11:00N 46°48' W 071°12'0 0.0 230 / 41007.1 -5.8-8.5
2017-Feb-18 10:00N 46°48' W 071°12'0 0.0 250 / 71008.0 -6.2-9.2
2017-Feb-18 09:00N 46°48' W 071°12'0 0.0 250 / 81007.7 -6.7-9.2
2017-Feb-18 08:00N 46°48' W 071°12'0 0.0 230 / 71007.5 -6.8-9.5
2017-Feb-18 07:00N 46°48' W 071°12'0 0.0 230 / 81007.9 -6.9-9.7
2017-Feb-18 06:00N 46°48' W 071°12'0 0.0 230 / 101007.5 -7.1-9.8
2017-Feb-18 05:00N 46°48' W 071°12'0 0.0 220 / 101007.1 -6.7-9.7
2017-Feb-18 04:00N 46°48' W 071°12'0 0.0 230 / 91007.1 -5.9-9.0
2017-Feb-18 03:00N 46°48' W 071°12'0 0.0 230 / 121007.1 -5.4-9.0
2017-Feb-18 02:00N 46°48' W 071°12'0 0.0 210 / 81007.3 -4.9-8.7
2017-Feb-18 01:00N 46°48' W 071°12'0 0.0 210 / 81006.4 -4.2-8.7
2017-Feb-18 00:00N 46°48' W 071°12'0 0.0 230 / 111006.0 -3.4-9.1
2017-Feb-17 23:00N 46°48' W 071°12'0 0.0 220 / 121005.3 -2.8-9.3
2017-Feb-17 22:00N 46°48' W 071°12'0 0.0 220 / 131004.3 -2.2-9.6
2017-Feb-17 21:00N 46°48' W 071°12'0 0.0 220 / 131003.5 -1.5-9.1
2017-Feb-17 20:00N 46°48' W 071°12'0 0.0 220 / 121002.8 -0.8-9.4
2017-Feb-17 19:00N 46°48' W 071°12'0 0.0 220 / 121002.5 -1.7-8.6
2017-Feb-17 18:00N 46°48' W 071°12'0 0.0 230 / 121002.5 -2.4-10.9
2017-Feb-17 17:00N 46°48' W 071°12'0 0.0 230 / 141003.2 -4.0-11.6
2017-Feb-17 16:00N 46°48' W 071°12'0 0.0 230 / 141003.5 -4.8-11.8
2017-Feb-17 15:00N 46°48' W 071°12'0 0.0 230 / 131003.6 -5.5-11.4
2017-Feb-17 14:00N 46°48' W 071°12'0 0.0 230 / 121003.8 -5.9-11.3
2017-Feb-17 13:00N 46°48' W 071°12'0 0.0 230 / 111003.3 -6.4-11.5
2017-Feb-17 12:00N 46°48' W 071°12'0 0.0 240 / 131002.4 -6.6-11.5
2017-Feb-17 11:00N 46°48' W 071°12'0 0.0 230 / 91001.8 -6.3-11.1
2017-Feb-17 10:00N 46°48' W 071°12'0 0.0 240 / 111001.3 -5.9-10.9
2017-Feb-17 09:00N 46°48' W 071°12'0 0.0 240 / 111000.6 -5.3-10.2
2017-Feb-17 08:00N 46°48' W 071°12'0 0.0 240 / 101000.0 -4.9-10.0
2017-Feb-17 07:00N 46°48' W 071°12'0 0.0 250 / 13999.3 -3.9-9.1
2017-Feb-17 06:00N 46°48' W 071°12'0 0.0 260 / 9999.0 -3.2-8.8
2017-Feb-17 05:00N 46°48' W 071°12'0 0.0 280 / 8999.0 -2.8-8.4
2017-Feb-17 04:00N 46°48' W 071°12'0 0.0 290 / 8998.9 -2.5-8.7
2017-Feb-17 02:00N 46°48' W 071°12'0 0.0 290 / 9998.6 -1.9-8.0
2017-Feb-17 01:00N 46°48' W 071°12'0 0.0 290 / 8998.6 -2.4-8.4
2017-Feb-17 00:00N 46°48' W 071°12'0 0.0 250 / 6998.8 -2.5-8.7
2017-Feb-16 23:00N 46°48' W 071°12'0 0.0 320 / 6998.6 -2.5-9.1
2017-Feb-16 22:00N 46°48' W 071°12'0 0.0 320 / 10997.3 -1.8-9.0
2017-Feb-16 21:00N 46°48' W 071°12'0 0.0 330 / 11996.3 -0.2-8.1
2017-Feb-16 20:00N 46°48' W 071°12'0 0.0 330 / 9995.8 -0.1-7.8
2017-Feb-16 19:00N 46°48' W 071°12'0 0.0 240 / 10996.1 -0.3-5.5
2017-Feb-16 18:00N 46°48' W 071°12'0 0.0 210 / 6997.2 -0.7-6.3
2017-Feb-16 17:00N 46°48' W 071°12'0 0.0 230 / 5998.0 -1.9-7.7
2017-Feb-16 16:00N 46°48' W 071°12'0 0.0 230 / 4998.5 -2.1-6.7
2017-Feb-16 15:00N 46°48' W 071°12'0 0.0 310 / 2998.6 -2.4-5.9
2017-Feb-16 14:00N 46°48' W 071°12'0 0.0 040 / 1998.7 -3.3-6.0
2017-Feb-16 13:00N 46°48' W 071°12'0 0.0 020 / 1998.7 -3.7-6.0
2017-Feb-16 12:00N 46°48' W 071°12'0 0.0 030 / 3997.9 -4.1-6.5
2017-Feb-16 11:00N 46°48' W 071°12'0 0.0 040 / 5997.6 -3.5-6.3
2017-Feb-16 10:00N 46°48' W 071°12'0 0.0 030 / 3996.9 -3.1-6.2
2017-Feb-16 09:00N 46°48' W 071°12'0 0.0 040 / 5997.0 -3.0-6.4
2017-Feb-16 07:00N 46°48' W 071°12'0 0.0 040 / 4998.0 -3.5-5.4
2017-Feb-16 06:00N 46°48' W 071°12'0 0.0 040 / 4998.4 -3.5-5.6
2017-Feb-16 05:00N 46°48' W 071°12'0 0.0 040 / 7998.9 -3.7-5.5
2017-Feb-16 04:00N 46°48' W 071°12'0 0.0 040 / 5998.8 -3.5-5.4
2017-Feb-16 03:00N 46°48' W 071°12'0 0.0 030 / 4999.2 -3.7-5.0
2017-Feb-16 02:00N 46°48' W 071°12'0 0.0 040 / 5999.6 -3.7-5.2
2017-Feb-16 01:00N 46°48' W 071°12'0 0.0 040 / 5999.9 -3.5-5.5
2017-Feb-16 00:00N 46°48' W 071°12'0 0.0 040 / 51000.0 -3.4-5.3
2017-Feb-15 23:00N 46°48' W 071°12'0 0.0 030 / 41000.4 -3.3-5.3
2017-Feb-15 22:00N 46°48' W 071°12'0 0.0 040 / 41000.4 -3.5-5.9
2017-Feb-15 21:00N 46°48' W 071°12'0 0.0 030 / 31000.6 -3.1-5.7
2017-Feb-15 20:00N 46°48' W 071°12'0 0.0 020 / 31001.0 -2.8-5.8
2017-Feb-15 19:00N 46°48' W 071°12'0 0.0 040 / 41001.3 -3.8-6.4
2017-Feb-15 18:00N 46°48' W 071°12'0 0.0 040 / 41002.0 -4.8-6.8
2017-Feb-15 17:00N 46°48' W 071°12'0 0.0 030 / 31002.8 -5.3-7.0
2017-Feb-15 16:00N 46°48' W 071°12'0 0.0 030 / 31003.2 -5.7-7.4
2017-Feb-15 15:00N 46°48' W 071°12'0 0.0 030 / 31003.5 -5.5-7.6
2017-Feb-15 14:00N 46°48' W 071°12'0 0.0 020 / 31004.2 -6.0-7.7
2017-Feb-15 13:00N 46°48' W 071°12'0 0.0 030 / 31004.6 -6.5-8.5
2017-Feb-15 12:00N 46°48' W 071°12'0 0.0 030 / 31004.9 -6.6-9.2
2017-Feb-15 11:00N 46°48' W 071°12'0 0.0 030 / 31005.3 -6.5-9.1
2017-Feb-15 10:00N 46°48' W 071°12'0 0.0 040 / 31005.8 -6.6-9.6
2017-Feb-15 09:00N 46°48' W 071°12'0 0.0 030 / 31006.5 -6.8-9.7
2017-Feb-15 08:00N 46°48' W 071°12'0 0.0 040 / 21006.6 -7.1-10.0
2017-Feb-15 07:00N 46°48' W 071°12'0 0.0 030 / 21007.4 -6.9-10.5
2017-Feb-15 06:00N 46°48' W 071°12'0 0.0 020 / 21007.8 -6.6-9.8
2017-Feb-15 04:00N 46°48' W 071°12'0 0.0 020 / 11008.6 -6.1-10.1
2017-Feb-15 03:00N 46°48' W 071°12'0 0.0 360 / 11009.3 -6.2-9.9
2017-Feb-15 02:00N 46°48' W 071°12'0 0.0 020 / 11009.4 -5.8-9.9
2017-Feb-15 01:00N 46°48' W 071°12'0 0.0 020 / 21009.3 -5.5-9.5
2017-Feb-15 00:00N 46°48' W 071°12'0 0.0 110 / 21009.6 -5.7-10.6
2017-Feb-14 23:00N 46°48' W 071°12'0 0.0 040 / 31009.5 -4.9-10.9
2017-Feb-14 22:00N 46°48' W 071°12'0 0.0 030 / 11009.3 -4.4-10.2
2017-Feb-14 21:00N 46°48' W 071°12'0 0.0 030 / 11009.8 -3.9-9.8
2017-Feb-14 20:00N 46°48' W 071°12'0 0.0 350 / 11009.9 -3.1-8.9
2017-Feb-14 19:00N 46°48' W 071°12'0 0.0 020 / 11010.0 -3.1-8.9
2017-Feb-14 18:00N 46°48' W 071°12'0 0.0 020 / 11010.7 -3.0-7.5
2017-Feb-14 17:00N 46°48' W 071°12'0 0.0 020 / 11012.0 -3.7-7.8
2017-Feb-14 16:00N 46°48' W 071°12'0 0.0 170 / 21012.8 -4.7-8.4
2017-Feb-14 15:00N 46°48' W 071°12'0 0.0 160 / 21012.7 -6.4-9.0
2017-Feb-14 14:00N 46°48' W 071°12'0 0.0 140 / 31012.8 -8.6-10.5
2017-Feb-14 13:00N 46°48' W 071°12'0 0.0 170 / 21013.1 -8.4-10.3
2017-Feb-14 12:00N 46°48' W 071°12'0 0.0 210 / 11013.1 -7.2-8.9
2017-Feb-14 11:00N 46°48' W 071°12'0 0.0 260 / 21013.6 -7.0-8.7
2017-Feb-14 10:00N 46°48' W 071°12'0 0.0 1013.8 -5.9-8.6
2017-Feb-14 09:00N 46°48' W 071°12'0 0.0 1014.1 -5.9-9.0
2017-Feb-14 08:00N 46°48' W 071°12'0 0.0 1013.8 -6.2-10.0
2017-Feb-14 07:00N 46°48' W 071°12'   140 / 31014.0 -5.8-9.7
Track history (hours):
 
Tides and Currents Weather Stations Pressure Air Temp Water Temp Dewpoint Dewpoint Depression Visibility Wind Speed Wind Dir Waves Ship Positions

Oceanographic research ship CCGS Louis S. St-Laurent (Canada)

Detailed information on ship capabilities available from ARCUS's ALIAS (Arctic Logistics Information and Support) project.

Last reported at 2017-Feb-24 07:00 UTC. Time now 2017-Feb-24 08:22 UTC.
Position N 46°48' W 071°12'.

Length 119.63 m; beam 24.38 m; draft 9.9 m.

MMSI: 316165000.

Wind from 210 at 7 knots

Barometer 1009.9 mb
Air temperature 4.8 ° C
Dewpoint 2.2 ° C

Date/timePositionNaut miles runAvg speedWind from/ knotsBaromVisibWave heightAir tempDewpointWater temp
2017-Feb-24 07:00N 46°48' W 071°12'0 0.0 210 / 71009.9 4.8 2.2
2017-Feb-24 06:00N 46°48' W 071°12'0 0.0 240 / 101008.7 5.8 2.8
2017-Feb-24 05:00N 46°48' W 071°12'0 0.0 220 / 71007.4 6.2 4.0
2017-Feb-24 04:00N 46°48' W 071°12'0 0.0 240 / 91006.3 6.7 5.0
2017-Feb-24 03:00N 46°48' W 071°12'0 0.0 240 / 101005.0 7.1 6.1
2017-Feb-24 02:00N 46°48' W 071°12'0 0.0 220 / 91003.6 6.8 6.4
2017-Feb-24 01:00N 46°48' W 071°12'0 0.0 240 / 91002.1 6.9 6.7
2017-Feb-24 00:00N 46°48' W 071°12'0 0.0 260 / 41001.3 5.8 5.7
2017-Feb-23 23:00N 46°48' W 071°12'0 0.0 290 / 31000.8 5.8 5.6
2017-Feb-23 22:00N 46°48' W 071°12'0 0.0 230 / 2999.9 6.4 6.0
2017-Feb-23 21:00N 46°48' W 071°12'0 0.0 220 / 3999.9 7.0 6.4
2017-Feb-23 20:00N 46°48' W 071°12'0 0.0 230 / 5999.6 6.9 5.9
2017-Feb-23 19:00N 46°48' W 071°12'0 0.0 220 / 4999.2 5.7 4.0
2017-Feb-23 18:00N 46°48' W 071°12'0 0.0 300 / 21000.2 4.7 2.9
2017-Feb-23 17:00N 46°48' W 071°12'0 0.0 150 / 11002.2 4.2 2.4
2017-Feb-23 16:00N 46°48' W 071°12'0 0.0 310 / 11003.6 4.0 2.6
2017-Feb-23 15:00N 46°48' W 071°12'0 0.0 110 / 21004.8 3.7 2.3
2017-Feb-23 14:00N 46°48' W 071°12'0 0.0 300 / 21005.4 3.5 2.0
2017-Feb-23 13:00N 46°48' W 071°12'0 0.0 240 / 31006.2 2.5 0.9
2017-Feb-23 12:00N 46°48' W 071°12'0 0.0 1006.5 3.0 1.1
2017-Feb-23 11:00N 46°48' W 071°12'0 0.0 230 / 31007.1 2.6 0.6
2017-Feb-23 10:00N 46°48' W 071°12'0 0.0 1007.5 1.1 0.3
2017-Feb-23 09:00N 46°48' W 071°12'0 0.0 350 / 11008.2 1.4 0.2
2017-Feb-23 08:00N 46°48' W 071°12'0 0.0 1008.7 1.0-0.2
2017-Feb-23 07:00N 46°48' W 071°12'0 0.0 1009.6 1.5 0.1
2017-Feb-23 06:00N 46°48' W 071°12'0 0.0 220 / 31010.5 1.2-0.1
2017-Feb-23 05:00N 46°48' W 071°12'0 0.0 300 / 11010.5 1.3-0.0
2017-Feb-23 04:00N 46°48' W 071°12'0 0.0 250 / 11011.0 1.3-0.2
2017-Feb-23 03:00N 46°48' W 071°12'0 0.0 1011.0 2.6 0.2
2017-Feb-23 02:00N 46°48' W 071°12'0 0.0 220 / 31011.5 3.4 0.6
2017-Feb-23 01:00N 46°48' W 071°12'0 0.0 240 / 41011.9 3.0 0.5
2017-Feb-23 00:00N 46°48' W 071°12'0 0.0 260 / 41011.3 3.5 0.6
2017-Feb-22 23:00N 46°48' W 071°12'0 0.0 180 / 71011.3 4.0 0.4
2017-Feb-22 22:00N 46°48' W 071°12'0 0.0 220 / 41012.8 4.4 0.6
2017-Feb-22 21:00N 46°48' W 071°12'0 0.0 220 / 61012.9 4.6 0.6
2017-Feb-22 20:00N 46°48' W 071°12'0 0.0 200 / 41012.8 4.8 0.2
2017-Feb-22 19:00N 46°48' W 071°12'0 0.0 190 / 61013.3 4.7-0.5
2017-Feb-22 18:00N 46°48' W 071°12'0 0.0 210 / 61013.6 4.1-1.1
2017-Feb-22 17:00N 46°48' W 071°12'0 0.0 200 / 61014.4 3.6-1.4
2017-Feb-22 16:00N 46°48' W 071°12'0 0.0 200 / 61014.6 2.8-1.8
2017-Feb-22 15:00N 46°48' W 071°12'0 0.0 200 / 71014.6 1.9-1.9
2017-Feb-22 14:00N 46°48' W 071°12'0 0.0 190 / 51014.8 1.6-1.5
2017-Feb-22 13:00N 46°48' W 071°12'0 0.0 210 / 31014.9 1.1-1.6
2017-Feb-22 12:00N 46°48' W 071°12'0 0.0 190 / 41014.6 0.9-1.8
2017-Feb-22 11:00N 46°48' W 071°12'0 0.0 240 / 31014.4 1.0-1.7
2017-Feb-22 10:00N 46°48' W 071°12'0 0.0 220 / 31014.4 0.4-1.8
2017-Feb-22 09:00N 46°48' W 071°12'0 0.0 220 / 41014.3 0.6-1.6
2017-Feb-22 07:00N 46°48' W 071°12'0 0.0 230 / 41014.5 1.0-3.4
2017-Feb-22 06:00N 46°48' W 071°12'0 0.0 230 / 31014.5 1.2-6.7
2017-Feb-22 05:00N 46°48' W 071°12'0 0.0 220 / 31014.6 1.1-7.4
2017-Feb-22 04:00N 46°48' W 071°12'0 0.0 220 / 31015.0 0.8-7.4
2017-Feb-22 03:00N 46°48' W 071°12'0 0.0 230 / 41015.5 0.2-6.5
2017-Feb-22 02:00N 46°48' W 071°12'0 0.0 1015.7 -0.0-4.7
2017-Feb-22 01:00N 46°48' W 071°12'0 0.0 1016.3 -0.0-6.0
2017-Feb-22 00:00N 46°48' W 071°12'0 0.0 050 / 11016.7 -0.3-4.3
2017-Feb-21 23:00N 46°48' W 071°12'0 0.0 080 / 11017.2 -0.3-4.6
2017-Feb-21 22:00N 46°48' W 071°12'0 0.0 030 / 21018.2 -0.3-5.0
2017-Feb-21 21:00N 46°48' W 071°12'0 0.0 010 / 11019.9 0.6-6.3
2017-Feb-21 20:00N 46°48' W 071°12'0 0.0 350 / 11020.7 1.1-7.5
2017-Feb-21 19:00N 46°48' W 071°12'0 0.0 020 / 21022.4 -1.4-7.2
2017-Feb-21 18:00N 46°48' W 071°12'0 0.0 110 / 11023.9 -0.8-9.0
2017-Feb-21 17:00N 46°48' W 071°12'0 0.0 030 / 11025.5 -1.9-7.9
2017-Feb-21 16:00N 46°48' W 071°12'0 0.0 020 / 21026.6 -3.9-9.2
2017-Feb-21 15:00N 46°48' W 071°12'0 0.0 300 / 21028.0 -5.2-9.6
2017-Feb-21 14:00N 46°48' W 071°12'0 0.0 1028.4 -4.7-10.9
2017-Feb-21 13:00N 46°48' W 071°12'0 0.0 240 / 11029.3 -6.8-9.6
2017-Feb-21 12:00N 46°48' W 071°12'0 0.0 250 / 11029.4 -8.1-10.7
2017-Feb-21 11:00N 46°48' W 071°12'0 0.0 310 / 31029.5 -7.7-12.8
2017-Feb-21 10:00N 46°48' W 071°12'0 0.0 310 / 21030.2 -7.1-12.7
2017-Feb-21 09:00N 46°48' W 071°12'0 0.0 150 / 11029.8 -6.9-10.6
2017-Feb-21 08:00N 46°48' W 071°12'0 0.0 010 / 11029.6 -6.1-10.0
2017-Feb-21 07:00N 46°48' W 071°12'0 0.0 020 / 21030.2 -6.2-9.5
2017-Feb-21 06:00N 46°48' W 071°12'0 0.0 010 / 21030.1 -5.5-7.1
2017-Feb-21 05:00N 46°48' W 071°12'0 0.0 020 / 21030.6 -4.5-7.0
2017-Feb-21 04:00N 46°48' W 071°12'0 0.0 230 / 11030.6 -3.5-6.0
2017-Feb-21 03:00N 46°48' W 071°12'0 0.0 020 / 21029.9 -3.4-5.8
2017-Feb-21 02:00N 46°48' W 071°12'0 0.0 110 / 11029.2 -2.8-5.7
2017-Feb-21 01:00N 46°48' W 071°12'0 0.0 110 / 11028.8 -2.3-6.0
2017-Feb-21 00:00N 46°48' W 071°12'0 0.0 040 / 11028.4 -1.7-5.3
2017-Feb-20 23:00N 46°48' W 071°12'0 0.0 110 / 11027.6 -1.2-5.8
2017-Feb-20 22:00N 46°48' W 071°12'0 0.0 1027.2 0.7-4.7
2017-Feb-20 21:00N 46°48' W 071°12'0 0.0 020 / 11026.8 1.8-4.5
2017-Feb-20 20:00N 46°48' W 071°12'0 0.0 040 / 11026.0 2.7-5.3
2017-Feb-20 19:00N 46°48' W 071°12'0 0.0 170 / 11025.1 2.1-5.6
2017-Feb-20 18:00N 46°48' W 071°12'0 0.0 010 / 11024.7 2.7-5.1
2017-Feb-20 17:00N 46°48' W 071°12'0 0.0 330 / 21024.7 1.0-10.0
2017-Feb-20 16:00N 46°48' W 071°12'0 0.0 270 / 21024.7 0.5-10.1
2017-Feb-20 15:00N 46°48' W 071°12'0 0.0 240 / 41023.9 -0.8-9.8
2017-Feb-20 14:00N 46°48' W 071°12'0 0.0 240 / 51023.3 -1.8-9.4
2017-Feb-20 13:00N 46°48' W 071°12'0 0.0 280 / 61022.4 -2.8-9.8
2017-Feb-20 12:00N 46°48' W 071°12'0 0.0 300 / 51021.2 -2.8-8.9
2017-Feb-20 11:00N 46°48' W 071°12'0 0.0 280 / 41020.0 -2.4-8.6
2017-Feb-20 09:00N 46°48' W 071°12'0 0.0 320 / 41018.0 -0.6-6.7
2017-Feb-20 08:00N 46°48' W 071°12'0 0.0 340 / 81017.5 0.2-6.8
2017-Feb-20 07:00N 46°48' W 071°12'0 0.0 310 / 41016.6 0.7-5.5
2017-Feb-20 06:00N 46°48' W 071°12'0 0.0 350 / 71015.9 1.0-5.0
2017-Feb-20 05:00N 46°48' W 071°12'0 0.0 340 / 61015.3 1.1-5.0
2017-Feb-20 04:00N 46°48' W 071°12'0 0.0 360 / 71014.6 1.3-4.4
2017-Feb-20 03:00N 46°48' W 071°12'0 0.0 360 / 71014.0 1.8-5.0
2017-Feb-20 02:00N 46°48' W 071°12'0 0.0 330 / 61012.9 1.8-4.3
2017-Feb-20 01:00N 46°48' W 071°12'0 0.0 350 / 121011.7 2.6-4.2
2017-Feb-20 00:00N 46°48' W 071°12'0 0.0 280 / 81010.4 2.6-2.6
2017-Feb-19 23:00N 46°48' W 071°12'0 0.0 100 / 11009.3 1.0-1.2
2017-Feb-19 22:00N 46°48' W 071°12'0 0.0 040 / 11008.2 1.2-0.7
2017-Feb-19 21:00N 46°48' W 071°12'0 0.0 1006.9 1.1-0.6
2017-Feb-19 20:00N 46°48' W 071°12'0 0.0 010 / 11005.4 1.5-0.6
2017-Feb-19 19:00N 46°48' W 071°12'0 0.0 030 / 11003.9 1.4-0.5
2017-Feb-19 18:00N 46°48' W 071°12'0 0.0 020 / 11002.7 1.3-0.4
2017-Feb-19 17:00N 46°48' W 071°12'0 0.0 360 / 11001.6 1.8 0.1
2017-Feb-19 16:00N 46°48' W 071°12'0 0.0 230 / 71001.2 4.1 2.1
2017-Feb-19 15:00N 46°48' W 071°12'0 0.0 230 / 71000.9 4.0 1.8
2017-Feb-19 14:00N 46°48' W 071°12'0 0.0 200 / 61000.7 3.8 1.4
2017-Feb-19 13:00N 46°48' W 071°12'0 0.0 230 / 51000.3 4.0 1.2
2017-Feb-19 12:00N 46°48' W 071°12'0 0.0 210 / 6999.4 3.6 1.1
2017-Feb-19 11:00N 46°48' W 071°12'0 0.0 210 / 4998.9 3.3 1.3
2017-Feb-19 10:00N 46°48' W 071°12'0 0.0 210 / 7998.0 3.2 1.0
2017-Feb-19 09:00N 46°48' W 071°12'0 0.0 210 / 5997.4 3.3 0.8
2017-Feb-19 08:00N 46°48' W 071°12'0 0.0 220 / 6996.7 3.3 0.2
2017-Feb-19 07:00N 46°48' W 071°12'0 0.0 240 / 4995.9 2.8-0.7
2017-Feb-19 06:00N 46°48' W 071°12'0 0.0 230 / 6995.1 2.8-0.8
2017-Feb-19 05:00N 46°48' W 071°12'0 0.0 230 / 5994.9 2.2-2.5
2017-Feb-19 04:00N 46°48' W 071°12'0 0.0 230 / 5994.6 1.6-3.6
2017-Feb-19 03:00N 46°48' W 071°12'0 0.0 230 / 5994.4 1.0-4.5
2017-Feb-19 02:00N 46°48' W 071°12'0 0.0 210 / 5994.4 1.6-5.1
2017-Feb-19 01:00N 46°48' W 071°12'0 0.0 220 / 4994.5 1.3-5.3
2017-Feb-19 00:00N 46°48' W 071°12'0 0.0 220 / 2993.9 1.3-4.2
2017-Feb-18 23:00N 46°48' W 071°12'0 0.0 993.7 0.7-3.0
2017-Feb-18 22:00N 46°48' W 071°12'0 0.0 120 / 1994.1 0.7-6.7
2017-Feb-18 21:00N 46°48' W 071°12'0 0.0 995.4 1.2-6.5
2017-Feb-18 20:00N 46°48' W 071°12'0 0.0 030 / 3996.4 0.5-5.8
2017-Feb-18 19:00N 46°48' W 071°12'0 0.0 020 / 3998.6 -0.9-6.1
2017-Feb-18 18:00N 46°48' W 071°12'0 0.0 360 / 21000.4 -1.5-6.7
2017-Feb-18 17:00N 46°48' W 071°12'0 0.0 030 / 31001.6 -2.3-6.9
2017-Feb-18 16:00N 46°48' W 071°12'0 0.0 260 / 11004.1 -3.1-7.5
2017-Feb-18 15:00N 46°48' W 071°12'0 0.0 220 / 41005.4 -4.3-8.0
2017-Feb-18 14:00N 46°48' W 071°12'0 0.0 250 / 21005.6 -4.9-8.0
2017-Feb-18 13:00N 46°48' W 071°12'0 0.0 230 / 41006.2 -5.8-8.4
2017-Feb-18 12:00N 46°48' W 071°12'0 0.0 250 / 41006.8 -5.9-8.5
2017-Feb-18 11:00N 46°48' W 071°12'0 0.0 230 / 41007.1 -5.8-8.5
2017-Feb-18 10:00N 46°48' W 071°12'0 0.0 250 / 71008.0 -6.2-9.2
2017-Feb-18 09:00N 46°48' W 071°12'0 0.0 250 / 81007.7 -6.7-9.2
2017-Feb-18 08:00N 46°48' W 071°12'0 0.0 230 / 71007.5 -6.8-9.5
2017-Feb-18 07:00N 46°48' W 071°12'0 0.0 230 / 81007.9 -6.9-9.7
2017-Feb-18 06:00N 46°48' W 071°12'0 0.0 230 / 101007.5 -7.1-9.8
2017-Feb-18 05:00N 46°48' W 071°12'0 0.0 220 / 101007.1 -6.7-9.7
2017-Feb-18 04:00N 46°48' W 071°12'0 0.0 230 / 91007.1 -5.9-9.0
2017-Feb-18 03:00N 46°48' W 071°12'0 0.0 230 / 121007.1 -5.4-9.0
2017-Feb-18 02:00N 46°48' W 071°12'0 0.0 210 / 81007.3 -4.9-8.7
2017-Feb-18 01:00N 46°48' W 071°12'0 0.0 210 / 81006.4 -4.2-8.7
2017-Feb-18 00:00N 46°48' W 071°12'0 0.0 230 / 111006.0 -3.4-9.1
2017-Feb-17 23:00N 46°48' W 071°12'0 0.0 220 / 121005.3 -2.8-9.3
2017-Feb-17 22:00N 46°48' W 071°12'0 0.0 220 / 131004.3 -2.2-9.6
2017-Feb-17 21:00N 46°48' W 071°12'0 0.0 220 / 131003.5 -1.5-9.1
2017-Feb-17 20:00N 46°48' W 071°12'0 0.0 220 / 121002.8 -0.8-9.4
2017-Feb-17 19:00N 46°48' W 071°12'0 0.0 220 / 121002.5 -1.7-8.6
2017-Feb-17 18:00N 46°48' W 071°12'0 0.0 230 / 121002.5 -2.4-10.9
2017-Feb-17 17:00N 46°48' W 071°12'0 0.0 230 / 141003.2 -4.0-11.6
2017-Feb-17 16:00N 46°48' W 071°12'0 0.0 230 / 141003.5 -4.8-11.8
2017-Feb-17 15:00N 46°48' W 071°12'0 0.0 230 / 131003.6 -5.5-11.4
2017-Feb-17 14:00N 46°48' W 071°12'0 0.0 230 / 121003.8 -5.9-11.3
2017-Feb-17 13:00N 46°48' W 071°12'0 0.0 230 / 111003.3 -6.4-11.5
2017-Feb-17 12:00N 46°48' W 071°12'0 0.0 240 / 131002.4 -6.6-11.5
2017-Feb-17 11:00N 46°48' W 071°12'0 0.0 230 / 91001.8 -6.3-11.1
2017-Feb-17 10:00N 46°48' W 071°12'0 0.0 240 / 111001.3 -5.9-10.9
2017-Feb-17 09:00N 46°48' W 071°12'0 0.0 240 / 111000.6 -5.3-10.2
2017-Feb-17 08:00N 46°48' W 071°12'0 0.0 240 / 101000.0 -4.9-10.0
2017-Feb-17 07:00N 46°48' W 071°12'0 0.0 250 / 13999.3 -3.9-9.1
2017-Feb-17 06:00N 46°48' W 071°12'0 0.0 260 / 9999.0 -3.2-8.8
2017-Feb-17 05:00N 46°48' W 071°12'0 0.0 280 / 8999.0 -2.8-8.4
2017-Feb-17 04:00N 46°48' W 071°12'0 0.0 290 / 8998.9 -2.5-8.7
2017-Feb-17 02:00N 46°48' W 071°12'0 0.0 290 / 9998.6 -1.9-8.0
2017-Feb-17 01:00N 46°48' W 071°12'0 0.0 290 / 8998.6 -2.4-8.4
2017-Feb-17 00:00N 46°48' W 071°12'0 0.0 250 / 6998.8 -2.5-8.7
2017-Feb-16 23:00N 46°48' W 071°12'0 0.0 320 / 6998.6 -2.5-9.1
2017-Feb-16 22:00N 46°48' W 071°12'0 0.0 320 / 10997.3 -1.8-9.0
2017-Feb-16 21:00N 46°48' W 071°12'0 0.0 330 / 11996.3 -0.2-8.1
2017-Feb-16 20:00N 46°48' W 071°12'0 0.0 330 / 9995.8 -0.1-7.8
2017-Feb-16 19:00N 46°48' W 071°12'0 0.0 240 / 10996.1 -0.3-5.5
2017-Feb-16 18:00N 46°48' W 071°12'0 0.0 210 / 6997.2 -0.7-6.3
2017-Feb-16 17:00N 46°48' W 071°12'0 0.0 230 / 5998.0 -1.9-7.7
2017-Feb-16 16:00N 46°48' W 071°12'0 0.0 230 / 4998.5 -2.1-6.7
2017-Feb-16 15:00N 46°48' W 071°12'0 0.0 310 / 2998.6 -2.4-5.9
2017-Feb-16 14:00N 46°48' W 071°12'0 0.0 040 / 1998.7 -3.3-6.0
2017-Feb-16 13:00N 46°48' W 071°12'0 0.0 020 / 1998.7 -3.7-6.0
2017-Feb-16 12:00N 46°48' W 071°12'0 0.0 030 / 3997.9 -4.1-6.5
2017-Feb-16 11:00N 46°48' W 071°12'0 0.0 040 / 5997.6 -3.5-6.3
2017-Feb-16 10:00N 46°48' W 071°12'0 0.0 030 / 3996.9 -3.1-6.2
2017-Feb-16 09:00N 46°48' W 071°12'0 0.0 040 / 5997.0 -3.0-6.4
2017-Feb-16 07:00N 46°48' W 071°12'0 0.0 040 / 4998.0 -3.5-5.4
2017-Feb-16 06:00N 46°48' W 071°12'0 0.0 040 / 4998.4 -3.5-5.6
2017-Feb-16 05:00N 46°48' W 071°12'0 0.0 040 / 7998.9 -3.7-5.5
2017-Feb-16 04:00N 46°48' W 071°12'0 0.0 040 / 5998.8 -3.5-5.4
2017-Feb-16 03:00N 46°48' W 071°12'0 0.0 030 / 4999.2 -3.7-5.0
2017-Feb-16 02:00N 46°48' W 071°12'0 0.0 040 / 5999.6 -3.7-5.2
2017-Feb-16 01:00N 46°48' W 071°12'0 0.0 040 / 5999.9 -3.5-5.5
2017-Feb-16 00:00N 46°48' W 071°12'0 0.0 040 / 51000.0 -3.4-5.3
2017-Feb-15 23:00N 46°48' W 071°12'0 0.0 030 / 41000.4 -3.3-5.3
2017-Feb-15 22:00N 46°48' W 071°12'0 0.0 040 / 41000.4 -3.5-5.9
2017-Feb-15 21:00N 46°48' W 071°12'0 0.0 030 / 31000.6 -3.1-5.7
2017-Feb-15 20:00N 46°48' W 071°12'0 0.0 020 / 31001.0 -2.8-5.8
2017-Feb-15 19:00N 46°48' W 071°12'0 0.0 040 / 41001.3 -3.8-6.4
2017-Feb-15 18:00N 46°48' W 071°12'0 0.0 040 / 41002.0 -4.8-6.8
2017-Feb-15 17:00N 46°48' W 071°12'0 0.0 030 / 31002.8 -5.3-7.0
2017-Feb-15 16:00N 46°48' W 071°12'0 0.0 030 / 31003.2 -5.7-7.4
2017-Feb-15 15:00N 46°48' W 071°12'0 0.0 030 / 31003.5 -5.5-7.6
2017-Feb-15 14:00N 46°48' W 071°12'0 0.0 020 / 31004.2 -6.0-7.7
2017-Feb-15 13:00N 46°48' W 071°12'0 0.0 030 / 31004.6 -6.5-8.5
2017-Feb-15 12:00N 46°48' W 071°12'0 0.0 030 / 31004.9 -6.6-9.2
2017-Feb-15 11:00N 46°48' W 071°12'0 0.0 030 / 31005.3 -6.5-9.1
2017-Feb-15 10:00N 46°48' W 071°12'0 0.0 040 / 31005.8 -6.6-9.6
2017-Feb-15 09:00N 46°48' W 071°12'0 0.0 030 / 31006.5 -6.8-9.7
2017-Feb-15 08:00N 46°48' W 071°12'0 0.0 040 / 21006.6 -7.1-10.0
2017-Feb-15 07:00N 46°48' W 071°12'0 0.0 030 / 21007.4 -6.9-10.5
2017-Feb-15 06:00N 46°48' W 071°12'0 0.0 020 / 21007.8 -6.6-9.8
2017-Feb-15 04:00N 46°48' W 071°12'0 0.0 020 / 11008.6 -6.1-10.1
2017-Feb-15 03:00N 46°48' W 071°12'0 0.0 360 / 11009.3 -6.2-9.9
2017-Feb-15 02:00N 46°48' W 071°12'0 0.0 020 / 11009.4 -5.8-9.9
2017-Feb-15 01:00N 46°48' W 071°12'0 0.0 020 / 21009.3 -5.5-9.5
2017-Feb-15 00:00N 46°48' W 071°12'0 0.0 110 / 21009.6 -5.7-10.6
2017-Feb-14 23:00N 46°48' W 071°12'0 0.0 040 / 31009.5 -4.9-10.9
2017-Feb-14 22:00N 46°48' W 071°12'0 0.0 030 / 11009.3 -4.4-10.2
2017-Feb-14 21:00N 46°48' W 071°12'0 0.0 030 / 11009.8 -3.9-9.8
2017-Feb-14 20:00N 46°48' W 071°12'0 0.0 350 / 11009.9 -3.1-8.9
2017-Feb-14 19:00N 46°48' W 071°12'0 0.0 020 / 11010.0 -3.1-8.9
2017-Feb-14 18:00N 46°48' W 071°12'0 0.0 020 / 11010.7 -3.0-7.5
2017-Feb-14 17:00N 46°48' W 071°12'0 0.0 020 / 11012.0 -3.7-7.8
2017-Feb-14 16:00N 46°48' W 071°12'0 0.0 170 / 21012.8 -4.7-8.4
2017-Feb-14 15:00N 46°48' W 071°12'0 0.0 160 / 21012.7 -6.4-9.0
2017-Feb-14 14:00N 46°48' W 071°12'0 0.0 140 / 31012.8 -8.6-10.5
2017-Feb-14 13:00N 46°48' W 071°12'0 0.0 170 / 21013.1 -8.4-10.3
2017-Feb-14 12:00N 46°48' W 071°12'0 0.0 210 / 11013.1 -7.2-8.9
2017-Feb-14 11:00N 46°48' W 071°12'0 0.0 260 / 21013.6 -7.0-8.7
2017-Feb-14 10:00N 46°48' W 071°12'0 0.0 1013.8 -5.9-8.6
2017-Feb-14 09:00N 46°48' W 071°12'0 0.0 1014.1 -5.9-9.0
2017-Feb-14 08:00N 46°48' W 071°12'0 0.0 1013.8 -6.2-10.0
2017-Feb-14 07:00N 46°48' W 071°12'   140 / 31014.0 -5.8-9.7

Dump ship's entire track history